createdAt,value
2023-01-28T00:00:58.639Z,30.08
2023-01-28T00:01:58.606Z,30.08
2023-01-28T00:02:58.611Z,30.09
2023-01-28T00:03:58.558Z,30.13
2023-01-28T00:04:58.487Z,30.11
2023-01-28T00:05:58.455Z,30.05
2023-01-28T00:06:58.434Z,30.05
2023-01-28T00:40:57.066Z,29.95
2023-01-28T00:41:57.035Z,29.92
2023-01-28T00:42:56.986Z,29.99
2023-01-28T00:43:56.950Z,29.93
2023-01-28T00:44:56.890Z,29.98
2023-01-28T00:45:56.837Z,29.96
2023-01-28T00:46:56.770Z,29.89
2023-01-28T00:47:56.715Z,29.88
2023-01-28T00:48:56.678Z,29.93
2023-01-28T00:49:56.625Z,29.92
2023-01-28T00:50:56.545Z,29.88
2023-01-28T00:51:56.515Z,29.91
2023-01-28T00:52:56.474Z,29.90
2023-01-28T00:53:56.439Z,29.93
2023-01-28T00:54:56.392Z,29.90
2023-01-28T00:55:56.375Z,29.91
2023-01-28T00:56:56.328Z,29.91
2023-01-28T00:57:56.290Z,29.86
2023-01-28T00:58:56.243Z,29.88
2023-01-28T00:59:56.221Z,29.87
2023-01-28T01:00:56.214Z,29.86
2023-01-28T01:01:56.146Z,29.86
2023-01-28T01:02:56.191Z,29.87
2023-01-28T01:03:56.049Z,29.86
2023-01-28T01:04:56.005Z,29.86
2023-01-28T01:05:55.955Z,29.87
2023-01-28T01:06:55.916Z,29.88
2023-01-28T01:07:55.888Z,29.88
2023-01-28T01:08:55.909Z,29.86
2023-01-28T01:09:55.828Z,29.86
2023-01-28T01:10:55.916Z,29.80
2023-01-28T01:11:55.743Z,29.80
2023-01-28T01:12:55.685Z,29.86
2023-01-28T01:13:55.613Z,29.83
2023-01-28T01:14:55.562Z,29.77
2023-01-28T02:34:48.974Z,29.50
2023-01-28T02:35:48.922Z,29.53
2023-01-28T02:36:48.845Z,29.47
2023-01-28T02:37:48.726Z,29.45
2023-01-28T02:38:48.663Z,29.48
2023-01-28T02:39:48.622Z,29.48
2023-01-28T02:40:48.551Z,29.44
2023-01-28T02:41:48.467Z,29.48
2023-01-28T02:42:48.423Z,29.39
2023-01-28T02:43:48.383Z,29.46
2023-01-28T02:44:48.321Z,29.44
2023-01-28T02:45:48.251Z,29.46
2023-01-28T02:46:48.175Z,29.48
2023-01-28T02:47:48.118Z,29.40
2023-01-28T02:48:48.061Z,29.39
2023-01-28T02:49:48.022Z,29.45
2023-01-28T02:50:47.972Z,29.40
2023-01-28T02:51:47.919Z,29.45
2023-01-28T02:52:47.835Z,29.40
2023-01-28T02:53:47.766Z,29.43
2023-01-28T02:54:47.719Z,29.43
2023-01-28T02:55:47.628Z,29.46
2023-01-28T02:56:47.557Z,29.43
2023-01-28T02:57:47.503Z,29.45
2023-01-28T02:58:47.435Z,29.41
2023-01-28T02:59:47.377Z,29.39
2023-01-28T03:00:47.337Z,29.40
2023-01-28T03:01:47.347Z,29.42
2023-01-28T03:02:47.259Z,29.42
2023-01-28T03:03:47.108Z,29.41
2023-01-28T03:04:47.035Z,29.40
2023-01-28T03:05:46.936Z,29.36
2023-01-28T03:06:46.832Z,29.39
2023-01-28T03:07:46.754Z,29.29
2023-01-28T03:08:46.666Z,29.37
2023-01-28T03:09:46.591Z,29.38
2023-01-28T03:10:46.513Z,29.38
2023-01-28T03:11:46.409Z,29.42
2023-01-28T03:12:46.342Z,29.42
2023-01-28T03:13:46.266Z,29.36
2023-01-28T03:14:46.181Z,29.34
2023-01-28T03:15:46.227Z,29.39
2023-01-28T03:16:46.048Z,29.36
2023-01-28T03:17:45.995Z,29.37
2023-01-28T03:18:45.944Z,29.36
2023-01-28T03:19:45.838Z,29.37
2023-01-28T03:20:45.771Z,29.36
2023-01-28T03:21:45.666Z,29.36
2023-01-28T03:22:45.569Z,29.30
2023-01-28T03:31:45.683Z,29.33
2023-01-28T04:20:40.781Z,29.21
2023-01-28T04:21:40.717Z,29.18
2023-01-28T04:22:40.636Z,29.21
2023-01-28T04:23:40.519Z,29.21
2023-01-28T04:24:40.447Z,29.22
2023-01-28T04:25:40.369Z,29.19
2023-01-28T04:26:40.296Z,29.15
2023-01-28T04:27:40.216Z,29.21
2023-01-28T04:28:40.112Z,29.15
2023-01-28T04:29:40.027Z,29.18
2023-01-28T04:30:39.981Z,29.19
2023-01-28T04:31:39.888Z,29.19
2023-01-28T04:32:39.747Z,29.10
2023-01-28T04:33:39.666Z,29.09
2023-01-28T04:34:39.591Z,29.13
2023-01-28T04:35:39.501Z,29.15
2023-01-28T04:36:39.414Z,29.12
2023-01-28T04:37:39.315Z,29.15
2023-01-28T04:38:39.222Z,29.12
2023-01-28T04:39:39.138Z,29.12
2023-01-28T04:40:39.052Z,29.15
2023-01-28T04:41:38.980Z,29.10
2023-01-28T04:42:38.881Z,29.12
2023-01-28T04:43:38.808Z,29.13
2023-01-28T04:44:38.759Z,29.16
2023-01-28T04:45:38.662Z,29.10
2023-01-28T04:46:38.638Z,29.18
2023-01-28T04:47:38.535Z,29.05
2023-01-28T04:48:38.457Z,29.07
2023-01-28T04:49:38.406Z,29.10
2023-01-28T04:50:38.337Z,29.10
2023-01-28T04:51:38.268Z,29.07
2023-01-28T04:52:38.188Z,29.12
2023-01-28T04:53:38.100Z,29.12
2023-01-28T04:54:38.032Z,29.09
2023-01-28T04:55:37.958Z,29.10
2023-01-28T04:56:37.845Z,29.12
2023-01-28T04:57:37.766Z,29.12
2023-01-28T04:58:37.689Z,29.13
2023-01-28T04:59:37.621Z,29.12
2023-01-28T05:00:37.572Z,29.05
2023-01-28T05:01:37.557Z,29.16
2023-01-28T05:02:37.469Z,29.07
2023-01-28T05:03:37.404Z,29.07
2023-01-28T05:04:37.348Z,29.12
2023-01-28T05:05:37.299Z,29.06
2023-01-28T05:06:37.229Z,29.07
2023-01-28T05:07:37.128Z,29.04
2023-01-28T05:08:37.032Z,29.07
2023-01-28T05:09:37.194Z,29.07
2023-01-28T05:10:36.897Z,29.07
2023-01-28T05:11:39.155Z,29.07
2023-01-28T05:12:36.839Z,29.09
2023-01-28T05:13:36.783Z,29.10
2023-01-28T05:14:36.717Z,29.03
2023-01-28T05:15:36.670Z,29.06
2023-01-28T05:16:36.572Z,29.06
2023-01-28T05:17:36.530Z,29.06
2023-01-28T05:18:36.400Z,29.07
2023-01-28T05:19:36.323Z,29.06
2023-01-28T05:20:36.245Z,29.00
2023-01-28T05:21:36.165Z,29.00
2023-01-28T05:22:36.075Z,29.07
2023-01-28T05:23:35.968Z,29.06
2023-01-28T05:24:35.901Z,29.03
2023-01-28T05:25:35.803Z,29.06
2023-01-28T05:26:35.763Z,29.00
2023-01-28T05:27:35.659Z,28.99
2023-01-28T05:28:35.568Z,29.01
2023-01-28T07:25:26.590Z,28.78
2023-01-28T07:26:26.529Z,28.72
2023-01-28T07:27:26.498Z,28.78
2023-01-28T07:28:26.413Z,28.75
2023-01-28T07:29:26.325Z,28.76
2023-01-28T07:30:26.257Z,28.79
2023-01-28T07:31:26.301Z,28.73
2023-01-28T07:32:26.097Z,28.80
2023-01-28T07:33:26.013Z,28.73
2023-01-28T07:34:25.948Z,28.76
2023-01-28T07:35:25.873Z,28.76
2023-01-28T07:36:25.773Z,28.69
2023-01-28T07:37:25.691Z,28.72
2023-01-28T07:38:25.602Z,28.69
2023-01-28T08:55:19.495Z,28.45
2023-01-28T08:56:19.433Z,28.40
2023-01-28T08:57:19.351Z,28.40
2023-01-28T08:58:19.269Z,28.40
2023-01-28T08:59:19.226Z,28.43
2023-01-28T09:00:19.130Z,28.41
2023-01-28T09:01:19.102Z,28.43
2023-01-28T09:02:30.686Z,28.40
2023-01-28T09:04:18.758Z,28.40
2023-01-28T09:05:18.705Z,28.39
2023-01-28T09:06:18.541Z,28.36
2023-01-28T09:07:18.447Z,28.37
2023-01-28T09:08:18.354Z,28.36
2023-01-28T09:09:18.252Z,28.36
2023-01-28T09:10:18.429Z,28.34
2023-01-28T09:11:18.289Z,28.37
2023-01-28T09:12:17.942Z,28.33
2023-01-28T09:13:17.847Z,28.36
2023-01-28T09:14:17.750Z,28.31
2023-01-28T09:15:17.651Z,28.32
2023-01-28T09:16:17.581Z,28.34
2023-01-28T09:17:17.448Z,28.32
2023-01-28T09:18:17.345Z,28.32
2023-01-28T09:19:17.259Z,28.27
2023-01-28T09:20:17.571Z,28.27
2023-01-28T09:21:17.057Z,28.24
2023-01-28T09:22:16.965Z,28.22
2023-01-28T09:23:16.851Z,28.24
2023-01-28T09:24:16.789Z,28.21
2023-01-28T09:25:16.675Z,28.23
2023-01-28T09:26:16.562Z,28.21
2023-01-28T09:27:16.453Z,28.23
2023-01-28T09:28:16.353Z,28.24
2023-01-28T09:29:16.253Z,28.24
2023-01-28T09:30:16.688Z,28.26
2023-01-28T09:31:16.184Z,28.20
2023-01-28T09:32:15.979Z,28.20
2023-01-28T09:33:15.911Z,28.24
2023-01-28T09:34:15.794Z,28.23
2023-01-28T09:35:15.715Z,28.23
2023-01-28T09:36:15.615Z,28.24
2023-01-28T10:19:11.858Z,28.21
2023-01-28T10:24:11.508Z,28.25
2023-01-28T10:25:11.311Z,28.21
2023-01-28T10:26:11.218Z,28.15
2023-01-28T10:27:11.121Z,28.23
2023-01-28T10:28:11.015Z,28.23
2023-01-28T10:29:10.984Z,28.24
2023-01-28T10:30:10.891Z,28.21
2023-01-28T10:31:10.890Z,28.18
2023-01-28T10:32:10.702Z,28.18
2023-01-28T10:33:10.640Z,28.18
2023-01-28T10:34:10.535Z,28.18
2023-01-28T10:35:10.426Z,28.16
2023-01-28T10:36:10.317Z,28.14
2023-01-28T10:37:10.219Z,28.11
2023-01-28T10:38:10.116Z,28.18
2023-01-28T10:39:10.034Z,28.16
2023-01-28T10:40:09.943Z,28.13
2023-01-28T10:41:09.848Z,28.16
2023-01-28T10:42:09.738Z,28.11
2023-01-28T10:43:09.636Z,28.17
2023-01-28T10:44:09.552Z,28.11
2023-01-28T10:45:09.477Z,28.16
2023-01-28T10:46:09.501Z,28.12
2023-01-28T10:47:09.301Z,28.13
2023-01-28T10:48:09.262Z,28.16
2023-01-28T10:49:09.121Z,28.13
2023-01-28T10:50:09.045Z,28.13
2023-01-28T10:51:08.927Z,28.08
2023-01-28T10:52:08.848Z,28.07
2023-01-28T10:53:08.772Z,28.10
2023-01-28T10:54:08.670Z,28.04
2023-01-28T10:55:08.633Z,28.04
2023-01-28T10:56:08.489Z,28.06
2023-01-28T10:57:08.395Z,28.06
2023-01-28T10:58:08.317Z,28.01
2023-01-28T10:59:08.215Z,28.04
2023-01-28T11:00:08.130Z,28.07
2023-01-28T11:01:08.077Z,28.03
2023-01-28T11:02:07.951Z,28.03
2023-01-28T11:03:07.853Z,28.01
2023-01-28T11:04:07.754Z,28.04
2023-01-28T11:05:07.686Z,27.98
2023-01-28T11:06:07.554Z,28.00
2023-01-28T11:07:07.477Z,27.98
2023-01-28T11:08:07.401Z,27.94
2023-01-28T11:09:07.328Z,27.98
2023-01-28T11:10:07.253Z,27.95
2023-01-28T11:11:07.187Z,27.97
2023-01-28T11:12:07.097Z,28.00
2023-01-28T11:13:07.020Z,28.01
2023-01-28T11:14:06.967Z,27.92
2023-01-28T11:15:06.896Z,27.94
2023-01-28T11:16:06.765Z,27.94
2023-01-28T11:17:06.680Z,27.91
2023-01-28T11:18:06.569Z,27.95
2023-01-28T11:19:06.489Z,27.91
2023-01-28T11:20:06.389Z,27.92
2023-01-28T11:21:06.295Z,27.89
2023-01-28T11:22:06.184Z,27.89
2023-01-28T11:23:06.151Z,27.95
2023-01-28T11:24:06.126Z,27.98
2023-01-28T11:25:06.003Z,28.00
2023-01-28T11:26:05.945Z,27.94
2023-01-28T11:27:05.846Z,27.94
2023-01-28T11:28:05.745Z,27.94
2023-01-28T11:29:05.666Z,27.94
2023-01-28T11:30:05.588Z,27.94
2023-01-28T11:31:05.532Z,27.97
2023-01-28T11:32:05.397Z,27.94
2023-01-28T11:33:05.291Z,27.97
2023-01-28T11:34:05.199Z,27.98
2023-01-28T11:35:05.140Z,28.00
2023-01-28T11:36:05.093Z,28.03
2023-01-28T11:37:04.999Z,27.98
2023-01-28T11:38:04.928Z,28.02
2023-01-28T11:39:04.826Z,27.98
2023-01-28T11:40:04.722Z,27.98
2023-01-28T11:41:04.644Z,28.00
2023-01-28T11:42:04.565Z,28.05
2023-01-28T11:43:04.469Z,28.00
2023-01-28T11:44:04.383Z,28.02
2023-01-28T11:45:04.356Z,28.03
2023-01-28T11:46:05.403Z,27.98
2023-01-28T11:47:04.152Z,27.96
2023-01-28T11:48:04.047Z,27.95
2023-01-28T11:49:03.958Z,27.98
2023-01-28T11:50:03.861Z,27.98
2023-01-28T11:51:03.775Z,27.98
2023-01-28T11:52:03.685Z,27.96
2023-01-28T11:53:07.375Z,27.95
2023-01-28T11:54:03.574Z,27.91
2023-01-28T11:55:03.468Z,28.00
2023-01-28T11:56:03.361Z,27.96
2023-01-28T11:57:03.270Z,27.94
2023-01-28T11:58:03.156Z,27.94
2023-01-28T11:59:03.079Z,27.92
2023-01-28T12:00:02.973Z,27.91
2023-01-28T12:01:02.864Z,27.88
2023-01-28T12:02:02.760Z,27.89
2023-01-28T12:03:02.655Z,27.92
2023-01-28T12:04:02.573Z,27.88
2023-01-28T12:05:02.561Z,27.84
2023-01-28T12:06:02.364Z,27.90
2023-01-28T12:07:02.274Z,27.90
2023-01-28T12:08:02.172Z,27.94
2023-01-28T12:09:02.066Z,27.91
2023-01-28T12:10:01.966Z,27.90
2023-01-28T12:11:01.888Z,27.92
2023-01-28T12:12:03.547Z,27.91
2023-01-28T12:13:01.681Z,27.92
2023-01-28T12:14:01.589Z,27.93
2023-01-28T12:15:01.521Z,27.92
2023-01-28T12:16:01.456Z,27.87
2023-01-28T12:17:01.289Z,27.85
2023-01-28T12:18:01.183Z,27.88
2023-01-28T12:19:01.095Z,27.88
2023-01-28T12:20:01.004Z,27.87
2023-01-28T12:21:00.896Z,27.88
2023-01-28T12:22:00.807Z,27.85
2023-01-28T12:23:00.706Z,27.88
2023-01-28T12:24:00.677Z,27.90
2023-01-28T12:25:00.508Z,27.87
2023-01-28T12:26:00.406Z,27.91
2023-01-28T12:27:00.302Z,27.92
2023-01-28T12:28:00.216Z,27.88
2023-01-28T12:29:00.117Z,27.82
2023-01-28T12:30:00.012Z,27.84
2023-01-28T12:30:59.942Z,27.85
2023-01-28T12:31:59.841Z,27.84
2023-01-28T12:32:59.709Z,27.81
2023-01-28T12:33:59.616Z,27.84
2023-01-28T12:34:59.532Z,27.82
2023-01-28T12:35:59.468Z,27.82
2023-01-28T12:36:59.329Z,27.84
2023-01-28T12:37:59.225Z,27.84
2023-01-28T12:38:59.131Z,27.80
2023-01-28T12:39:59.031Z,27.82
2023-01-28T12:40:58.935Z,27.83
2023-01-28T12:41:58.855Z,27.86
2023-01-28T12:42:58.721Z,27.88
2023-01-28T12:43:58.625Z,27.88
2023-01-28T12:44:58.524Z,27.91
2023-01-28T12:45:58.481Z,27.91
2023-01-28T12:46:58.327Z,27.89
2023-01-28T12:47:58.222Z,27.88
2023-01-28T12:48:58.108Z,27.83
2023-01-28T12:49:58.005Z,27.88
2023-01-28T12:50:57.906Z,27.83
2023-01-28T12:51:57.823Z,27.82
2023-01-28T12:52:57.713Z,27.80
2023-01-28T12:53:57.613Z,27.83
2023-01-28T12:54:57.481Z,27.83
2023-01-28T12:55:57.375Z,27.83
2023-01-28T12:56:57.289Z,27.85
2023-01-28T12:57:57.188Z,27.82
2023-01-28T12:58:57.080Z,27.86
2023-01-28T12:59:56.980Z,27.85
2023-01-28T13:00:56.891Z,27.83
2023-01-28T13:01:56.812Z,27.83
2023-01-28T13:02:56.718Z,27.83
2023-01-28T13:03:56.597Z,27.85
2023-01-28T13:04:56.489Z,27.89
2023-01-28T13:05:56.412Z,27.82
2023-01-28T13:06:56.310Z,27.87
2023-01-28T13:07:56.225Z,27.82
2023-01-28T13:08:56.111Z,27.83
2023-01-28T13:09:56.869Z,27.86
2023-01-28T13:10:55.919Z,27.79
2023-01-28T13:11:55.827Z,27.82
2023-01-28T13:12:55.736Z,27.85
2023-01-28T13:13:55.635Z,27.83
2023-01-28T13:14:55.540Z,27.86
2023-01-28T14:26:48.204Z,27.86
2023-01-28T14:27:48.113Z,27.89
2023-01-28T14:28:47.994Z,27.86
2023-01-28T14:29:47.956Z,27.89
2023-01-28T14:30:47.893Z,27.91
2023-01-28T14:31:47.821Z,27.87
2023-01-28T14:32:47.584Z,27.86
2023-01-28T14:33:47.486Z,27.88
2023-01-28T14:34:47.390Z,27.90
2023-01-28T14:35:47.285Z,27.96
2023-01-28T14:36:47.181Z,27.89
2023-01-28T14:37:47.082Z,27.87
2023-01-28T14:38:47.009Z,27.91
2023-01-28T14:39:46.960Z,27.89
2023-01-28T14:40:46.843Z,27.88
2023-01-28T14:41:46.741Z,27.94
2023-01-28T14:42:46.643Z,27.84
2023-01-28T14:43:46.572Z,27.88
2023-01-28T14:44:46.473Z,27.90
2023-01-28T14:45:46.397Z,27.83
2023-01-28T14:46:46.359Z,27.81
2023-01-28T14:47:46.226Z,27.85
2023-01-28T14:48:46.131Z,27.87
2023-01-28T14:49:46.042Z,27.81
2023-01-28T14:50:46.006Z,27.85
2023-01-28T14:51:45.872Z,27.89
2023-01-28T14:52:45.807Z,27.88
2023-01-28T14:53:45.732Z,27.88
2023-01-28T14:54:45.632Z,27.83
2023-01-28T14:55:45.550Z,27.82
2023-01-28T14:56:45.458Z,27.85
2023-01-28T14:57:45.371Z,27.84
2023-01-28T14:58:45.293Z,27.84
2023-01-28T14:59:45.205Z,27.81
2023-01-28T15:00:45.109Z,27.81
2023-01-28T15:01:45.094Z,27.83
2023-01-28T15:02:45.026Z,27.83
2023-01-28T15:03:44.848Z,27.85
2023-01-28T15:04:44.762Z,27.82
2023-01-28T15:05:44.666Z,27.87
2023-01-28T15:06:44.576Z,27.84
2023-01-28T15:07:44.497Z,27.82
2023-01-28T15:08:44.423Z,27.84
2023-01-28T15:09:44.339Z,27.84
2023-01-28T15:10:44.240Z,27.80
2023-01-28T15:11:44.162Z,27.81
2023-01-28T15:12:44.085Z,27.81
2023-01-28T15:13:43.984Z,27.84
2023-01-28T15:14:43.912Z,27.85
2023-01-28T15:15:43.824Z,27.85
2023-01-28T15:16:43.782Z,27.84
2023-01-28T15:17:43.666Z,27.82
2023-01-28T15:18:43.600Z,27.84
2023-01-28T15:19:43.488Z,27.84
2023-01-28T15:20:43.403Z,27.84
2023-01-28T15:21:43.324Z,27.81
2023-01-28T15:22:43.233Z,27.84
2023-01-28T15:23:43.173Z,27.84
2023-01-28T15:24:43.082Z,27.84
2023-01-28T15:25:42.985Z,27.88
2023-01-28T15:26:42.899Z,27.84
2023-01-28T15:27:42.795Z,27.85
2023-01-28T15:28:42.713Z,27.85
2023-01-28T15:29:42.619Z,27.85
2023-01-28T15:30:42.563Z,27.83
2023-01-28T15:31:42.557Z,27.85
2023-01-28T15:32:42.376Z,27.87
2023-01-28T15:33:42.294Z,27.82
2023-01-28T15:34:42.203Z,27.85
2023-01-28T15:35:42.115Z,27.85
2023-01-28T15:36:42.043Z,27.88
2023-01-28T15:37:41.962Z,27.85
2023-01-28T15:38:41.858Z,27.88
2023-01-28T15:39:41.785Z,27.85
2023-01-28T15:40:41.692Z,27.85
2023-01-28T15:41:41.650Z,27.80
2023-01-28T15:42:41.517Z,27.85
2023-01-28T15:43:41.464Z,27.87
2023-01-28T15:44:41.349Z,27.85
2023-01-28T15:45:41.279Z,27.82
2023-01-28T15:46:41.171Z,27.85
2023-01-28T15:47:41.160Z,27.86
2023-01-28T15:48:41.030Z,27.85
2023-01-28T15:49:40.962Z,27.83
2023-01-28T15:50:40.867Z,27.83
2023-01-28T15:51:40.757Z,27.85
2023-01-28T15:52:40.678Z,27.83
2023-01-28T15:53:40.580Z,27.83
2023-01-28T15:54:40.515Z,27.82
2023-01-28T15:55:40.424Z,27.83
2023-01-28T15:56:40.345Z,27.85
2023-01-28T15:57:40.263Z,27.86
2023-01-28T15:58:40.180Z,27.89
2023-01-28T15:59:40.091Z,27.85
2023-01-28T16:00:40.069Z,27.82
2023-01-28T16:01:39.927Z,27.85
2023-01-28T16:02:39.855Z,27.88
2023-01-28T16:03:39.863Z,27.86
2023-01-28T16:04:39.728Z,27.85
2023-01-28T16:05:39.611Z,27.82
2023-01-28T16:06:39.527Z,27.85
2023-01-28T16:07:39.434Z,27.85
2023-01-28T16:08:39.366Z,27.89
2023-01-28T16:09:39.277Z,27.86
2023-01-28T16:10:39.213Z,27.91
2023-01-28T16:11:39.118Z,27.83
2023-01-28T16:12:39.027Z,27.86
2023-01-28T16:13:38.947Z,27.92
2023-01-28T16:14:38.875Z,27.85
2023-01-28T16:15:38.796Z,27.85
2023-01-28T16:16:38.859Z,27.91
2023-01-28T16:17:38.647Z,27.86
2023-01-28T16:18:38.535Z,27.86
2023-01-28T16:19:38.460Z,27.89
2023-01-28T16:20:38.381Z,27.85
2023-01-28T16:21:38.308Z,27.89
2023-01-28T16:22:38.225Z,27.89
2023-01-28T16:23:39.611Z,27.86
2023-01-28T16:24:38.105Z,27.83
2023-01-28T16:25:37.969Z,27.89
2023-01-28T16:26:37.939Z,27.88
2023-01-28T16:27:37.817Z,27.88
2023-01-28T16:28:37.739Z,27.88
2023-01-28T16:29:37.657Z,27.85
2023-01-28T16:30:37.646Z,27.85
2023-01-28T16:31:37.525Z,27.83
2023-01-28T16:32:37.413Z,27.87
2023-01-28T16:33:37.333Z,27.89
2023-01-28T16:34:37.248Z,27.88
2023-01-28T16:36:01.278Z,27.86
2023-01-28T16:36:38.077Z,27.88
2023-01-28T16:37:39.347Z,27.90
2023-01-28T16:38:36.930Z,27.89
2023-01-28T16:39:36.754Z,27.82
2023-01-28T16:40:36.654Z,27.86
2023-01-28T16:41:36.557Z,27.86
2023-01-28T16:42:36.454Z,27.82
2023-01-28T16:43:36.370Z,27.89
2023-01-28T16:44:36.259Z,27.83
2023-01-28T16:45:36.159Z,27.86
2023-01-28T16:46:36.087Z,27.83
2023-01-28T16:47:35.952Z,27.92
2023-01-28T16:48:35.859Z,27.85
2023-01-28T16:49:35.776Z,27.89
2023-01-28T16:50:35.655Z,27.86
2023-01-28T16:51:35.541Z,27.87
2023-01-28T16:52:35.469Z,27.86
2023-01-28T16:53:35.382Z,27.87
2023-01-28T16:54:35.265Z,27.87
2023-01-28T16:55:35.164Z,27.85
2023-01-28T16:56:45.665Z,27.87
2023-01-28T16:57:35.951Z,27.83
2023-01-28T16:58:34.848Z,27.83
2023-01-28T16:59:34.759Z,27.91
2023-01-28T17:00:34.678Z,27.87
2023-01-28T17:01:34.551Z,27.86
2023-01-28T17:02:34.458Z,27.82
2023-01-28T17:03:34.368Z,27.86
2023-01-28T17:04:34.248Z,27.86
2023-01-28T17:05:34.160Z,27.86
2023-01-28T17:06:34.042Z,27.85
2023-01-28T17:07:33.944Z,27.85
2023-01-28T17:08:33.828Z,27.86
2023-01-28T17:09:33.748Z,27.87
2023-01-28T17:10:33.687Z,27.87
2023-01-28T17:11:33.535Z,27.87
2023-01-28T17:12:33.430Z,27.90
2023-01-28T17:13:33.322Z,27.80
2023-01-28T17:14:33.229Z,27.86
2023-01-28T17:15:33.130Z,27.86
2023-01-28T17:16:33.104Z,27.87
2023-01-28T17:17:32.952Z,27.86
2023-01-28T17:18:32.843Z,27.86
2023-01-28T17:19:32.721Z,27.86
2023-01-28T17:20:32.640Z,27.85
2023-01-28T17:21:32.513Z,27.83
2023-01-28T17:22:32.404Z,27.78
2023-01-28T17:23:32.320Z,27.86
2023-01-28T17:24:32.378Z,27.85
2023-01-28T17:25:32.158Z,27.87
2023-01-28T17:26:32.075Z,27.83
2023-01-28T17:27:31.979Z,27.86
2023-01-28T17:28:31.898Z,27.78
2023-01-28T17:29:31.826Z,27.80
2023-01-28T17:30:31.746Z,27.84
2023-01-28T17:31:31.755Z,27.86
2023-01-28T17:32:31.593Z,27.84
2023-01-28T17:33:31.499Z,27.83
2023-01-28T17:34:31.432Z,27.86
2023-01-28T17:35:31.333Z,27.84
2023-01-28T17:36:31.256Z,27.86
2023-01-28T17:37:31.190Z,27.82
2023-01-28T17:38:31.072Z,27.87
2023-01-28T17:39:30.988Z,27.86
2023-01-28T17:40:30.905Z,27.83
2023-01-28T17:41:30.854Z,27.89
2023-01-28T17:42:30.734Z,27.86
2023-01-28T17:43:30.666Z,27.84
2023-01-28T17:44:30.596Z,27.87
2023-01-28T17:45:30.531Z,27.84
2023-01-28T17:46:30.428Z,27.84
2023-01-28T17:47:30.339Z,27.86
2023-01-28T17:48:30.265Z,27.84
2023-01-28T17:49:30.186Z,27.82
2023-01-28T18:38:26.248Z,27.85
2023-01-28T18:39:26.140Z,27.84
2023-01-28T18:40:26.079Z,27.88
2023-01-28T18:41:25.995Z,27.85
2023-01-28T18:42:25.913Z,27.81
2023-01-28T18:43:25.831Z,27.84
2023-01-28T18:44:25.751Z,27.85
2023-01-28T18:45:25.659Z,27.82
2023-01-28T18:46:25.595Z,27.89
2023-01-28T20:16:18.977Z,27.88
2023-01-28T20:17:18.954Z,27.81
2023-01-28T20:18:18.842Z,27.82
2023-01-28T20:19:18.774Z,27.81
2023-01-28T20:20:18.719Z,27.80
2023-01-28T20:21:18.618Z,27.80
2023-01-28T20:22:18.572Z,27.82
2023-01-28T20:23:18.492Z,27.81
2023-01-28T20:24:18.447Z,27.81
2023-01-28T20:25:18.647Z,27.81
2023-01-28T20:26:18.284Z,27.85
2023-01-28T20:27:18.215Z,27.79
2023-01-28T20:28:18.155Z,27.85
2023-01-28T20:29:18.074Z,27.82
2023-01-28T20:30:17.995Z,27.81
2023-01-28T20:31:18.047Z,27.81
2023-01-28T20:32:20.452Z,27.84
2023-01-28T20:33:17.744Z,27.81
2023-01-28T20:34:17.659Z,27.82
2023-01-28T20:35:17.887Z,27.81
2023-01-28T20:36:17.476Z,27.81
2023-01-28T20:37:17.373Z,27.82
2023-01-28T20:38:17.260Z,27.82
2023-01-28T20:39:17.152Z,27.87
2023-01-28T20:40:17.064Z,27.83
2023-01-28T20:41:16.962Z,27.82
2023-01-28T20:42:16.864Z,27.81
2023-01-28T20:43:16.761Z,27.79
2023-01-28T20:44:16.675Z,27.85
2023-01-28T20:45:16.892Z,27.85
2023-01-28T20:46:16.539Z,27.85
2023-01-28T20:47:16.393Z,27.89
2023-01-28T20:48:16.287Z,27.87
2023-01-28T20:49:16.182Z,27.82
2023-01-28T20:50:16.388Z,27.82
2023-01-28T20:51:15.994Z,27.82
2023-01-28T20:52:15.913Z,27.85
2023-01-28T20:53:15.813Z,27.82
2023-01-28T20:54:15.730Z,27.88
2023-01-28T20:55:15.608Z,27.83
2023-01-28T22:35:07.253Z,27.85
2023-01-28T22:36:07.178Z,27.89
2023-01-28T22:37:07.113Z,27.88
2023-01-28T22:38:07.037Z,27.86
2023-01-28T22:39:06.967Z,27.83
2023-01-28T22:40:06.892Z,27.86
2023-01-28T22:41:06.847Z,27.82
2023-01-28T22:42:06.869Z,27.83
2023-01-28T22:43:06.727Z,27.82
2023-01-28T22:44:06.659Z,27.79
2023-01-28T22:45:06.601Z,27.83
2023-01-28T22:46:06.588Z,27.86
2023-01-28T22:47:06.453Z,27.86
2023-01-28T22:48:06.404Z,27.80
2023-01-28T22:49:06.333Z,27.85
2023-01-28T22:50:06.269Z,27.83
2023-01-28T22:51:06.180Z,27.79
2023-01-28T22:58:05.724Z,27.82
2023-01-28T22:59:05.651Z,27.82
2023-01-28T23:00:05.576Z,27.85
